Time;durP1;ratioP1;P1;durP2;ratioP2;P2;SDS_P1;SDS_P2;PMS_P1;PMS_P2;Temp;Humidity;BMP_temperature;BMP_pressure;BME280_temperature;BME280_humidity;BME280_pressure;Samples;Min_cycle;Max_cycle;Signal;HPM_P1;HPM_P2
2022/08/17 00:01:00;;;;;;;5.43;3.40;;;22.50;98.80;;;;;;5073682;28;20074;-76
2022/08/17 00:03:32;;;;;;;5.13;3.00;;;22.50;99.00;;;;;;5073785;28;20021;-77
2022/08/17 00:05:59;;;;;;;5.68;3.03;;;22.10;99.50;;;;;;5073633;28;20086;-77
2022/08/17 00:08:31;;;;;;;7.50;3.90;;;22.00;99.90;;;;;;5073222;28;20029;-77
2022/08/17 00:10:58;;;;;;;6.78;3.20;;;21.90;99.90;;;;;;5072281;28;20036;-77
2022/08/17 00:13:30;;;;;;;6.07;3.70;;;22.10;99.80;;;;;;5072391;28;20043;-77
2022/08/17 00:15:59;;;;;;;5.53;3.00;;;22.10;99.70;;;;;;5072419;28;20029;-76
2022/08/17 00:18:30;;;;;;;6.18;3.28;;;22.20;99.60;;;;;;5072784;28;20060;-77
2022/08/17 00:20:57;;;;;;;7.63;4.10;;;22.10;99.60;;;;;;5072569;28;20471;-77
2022/08/17 00:23:23;;;;;;;5.50;2.92;;;22.20;99.50;;;;;;5072353;28;20024;-77
2022/08/17 00:25:49;;;;;;;5.97;3.22;;;22.20;99.40;;;;;;5072453;28;20086;-76
2022/08/17 00:28:15;;;;;;;5.40;3.50;;;22.20;99.40;;;;;;5072316;28;20452;-76
2022/08/17 00:30:47;;;;;;;7.53;3.40;;;22.20;99.50;;;;;;5072243;28;20029;-77
2022/08/17 00:33:20;;;;;;;5.03;3.42;;;22.20;99.50;;;;;;5072382;28;20024;-77
2022/08/17 00:35:47;;;;;;;5.33;3.30;;;22.10;99.50;;;;;;5072534;28;20034;-77
2022/08/17 00:38:14;;;;;;;5.65;3.70;;;22.10;99.60;;;;;;5072198;28;20025;-77
2022/08/17 00:40:46;;;;;;;8.63;3.67;;;22.10;99.70;;;;;;5072033;28;20486;-77
2022/08/17 00:43:34;;;;;;;5.60;3.47;;;22.00;99.70;;;;;;5072062;28;20035;-76
2022/08/17 00:46:25;;;;;;;7.53;3.25;;;21.90;99.90;;;;;;5071997;28;20082;-77
2022/08/17 00:48:53;;;;;;;7.38;4.10;;;21.80;99.90;;;;;;5072139;28;20028;-77
2022/08/17 00:51:45;;;;;;;5.57;3.75;;;21.80;99.90;;;;;;5071531;28;20032;-77
2022/08/17 00:54:24;;;;;;;5.53;3.30;;;21.70;99.90;;;;;;5054349;28;20390;-76
2022/08/17 00:57:05;;;;;;;6.82;3.20;;;21.70;99.90;;;;;;5072436;28;20025;-76
2022/08/17 00:59:37;;;;;;;11.70;3.80;;;21.60;99.90;;;;;;5054451;28;20036;-76
2022/08/17 01:02:05;;;;;;;6.55;3.13;;;21.50;99.90;;;;;;5072153;28;20044;-76
2022/08/17 01:04:31;;;;;;;5.82;3.50;;;21.50;99.90;;;;;;5072131;28;20033;-76
2022/08/17 01:06:59;;;;;;;4.75;3.35;;;21.60;99.90;;;;;;5053798;28;20037;-76
2022/08/17 01:09:26;;;;;;;5.57;3.53;;;21.50;99.90;;;;;;5030866;28;1186536;-76
2022/08/17 01:11:51;;;;;;;5.53;3.70;;;21.50;99.90;;;;;;5072849;28;20048;-76
2022/08/17 01:14:22;;;;;;;4.97;3.20;;;21.50;99.90;;;;;;5072678;28;20029;-76
2022/08/17 01:16:50;;;;;;;6.00;3.53;;;21.50;99.90;;;;;;5073051;28;20037;-76
2022/08/17 01:19:34;;;;;;;7.30;3.60;;;21.50;99.90;;;;;;5072558;28;20035;-76
2022/08/17 01:22:19;;;;;;;5.07;3.65;;;21.50;99.90;;;;;;5072686;28;20428;-76
2022/08/17 01:24:51;;;;;;;7.88;4.07;;;21.40;99.90;;;;;;5072267;28;20021;-77
2022/08/17 01:27:17;;;;;;;8.00;3.63;;;21.40;99.90;;;;;;5072731;28;20039;-76
2022/08/17 01:29:47;;;;;;;5.50;3.47;;;21.30;99.90;;;;;;5072901;28;20050;-76
2022/08/17 01:32:14;;;;;;;6.15;3.72;;;21.20;99.90;;;;;;5072888;28;20097;-76
2022/08/17 01:34:40;;;;;;;5.18;3.53;;;21.10;99.90;;;;;;5072848;28;20593;-76
2022/08/17 01:37:06;;;;;;;5.40;4.03;;;21.00;99.90;;;;;;5072493;28;20120;-76
2022/08/17 01:39:51;;;;;;;6.32;3.72;;;21.00;99.90;;;;;;5072705;28;20033;-76
2022/08/17 01:42:40;;;;;;;5.95;3.55;;;21.10;99.90;;;;;;5072935;28;20029;-76
2022/08/17 01:45:29;;;;;;;6.75;3.50;;;21.20;99.90;;;;;;5072671;28;20025;-76
2022/08/17 01:47:55;;;;;;;6.43;3.50;;;21.10;99.90;;;;;;5072334;28;20028;-77
2022/08/17 01:50:26;;;;;;;8.23;4.10;;;21.10;99.90;;;;;;5072435;28;20055;-76
2022/08/17 01:52:58;;;;;;;5.53;3.22;;;21.00;99.90;;;;;;5072658;28;20024;-77
2022/08/17 01:55:32;;;;;;;5.63;3.30;;;21.00;99.90;;;;;;5072375;28;20020;-76
2022/08/17 01:57:58;;;;;;;;;;;21.00;99.90;;;;;;5072528;28;20021;-77
2022/08/17 02:00:24;;;;;;;5.88;3.58;;;21.00;99.90;;;;;;5072683;28;20405;-77
2022/08/17 02:02:50;;;;;;;5.28;3.33;;;20.90;99.90;;;;;;5072960;28;20031;-77
2022/08/17 02:05:17;;;;;;;5.80;3.40;;;21.00;99.90;;;;;;5076147;28;20029;-77
2022/08/17 02:07:42;;;;;;;5.82;3.78;;;21.00;99.90;;;;;;5075672;28;20029;-76
2022/08/17 02:10:09;;;;;;;5.30;3.85;;;21.00;99.90;;;;;;5057662;28;20052;-76
2022/08/17 02:12:35;;;;;;;4.95;3.17;;;21.00;99.90;;;;;;5075342;28;20031;-76
2022/08/17 02:15:01;;;;;;;5.70;3.65;;;21.00;99.90;;;;;;5075856;28;20078;-76
2022/08/17 02:17:27;;;;;;;7.50;3.60;;;21.00;99.90;;;;;;5075864;28;20029;-76
2022/08/17 02:19:52;;;;;;;4.85;3.25;;;21.00;99.90;;;;;;5075760;28;20031;-76
2022/08/17 02:22:18;;;;;;;5.53;3.22;;;21.10;99.90;;;;;;5075725;28;20532;-76
2022/08/17 02:24:45;;;;;;;4.90;3.42;;;21.00;99.90;;;;;;5075375;28;20043;-76
2022/08/17 02:27:11;;;;;;;5.60;3.38;;;20.90;99.90;;;;;;5075485;28;20040;-76
2022/08/17 02:29:37;;;;;;;5.72;3.33;;;20.90;99.90;;;;;;5075416;28;20035;-76
2022/08/17 02:32:03;;;;;;;6.20;3.75;;;20.90;99.90;;;;;;5075262;28;20036;-76
2022/08/17 02:34:31;;;;;;;5.40;3.60;;;20.90;99.90;;;;;;5075453;28;20052;-76
2022/08/17 02:36:56;;;;;;;7.15;3.17;;;20.90;99.90;;;;;;5075241;28;20065;-76
2022/08/17 02:39:22;;;;;;;5.15;3.45;;;20.90;99.90;;;;;;5057479;28;20104;-76
2022/08/17 02:41:48;;;;;;;6.13;4.07;;;20.90;99.90;;;;;;5075325;28;20028;-76
2022/08/17 02:44:13;;;;;;;7.40;3.50;;;20.80;99.90;;;;;;5074900;28;20033;-76
2022/08/17 02:46:39;;;;;;;6.72;3.58;;;20.80;99.90;;;;;;5074999;28;20033;-77
2022/08/17 02:49:05;;;;;;;7.55;4.20;;;20.80;99.90;;;;;;5075233;28;20048;-76
2022/08/17 02:51:31;;;;;;;9.50;4.47;;;20.80;99.90;;;;;;5075063;28;20501;-76
2022/08/17 02:53:57;;;;;;;7.10;3.70;;;20.70;99.90;;;;;;5074380;28;20080;-76
2022/08/17 02:56:22;;;;;;;6.25;3.40;;;20.60;99.90;;;;;;5074868;28;20599;-76
2022/08/17 02:58:48;;;;;;;5.28;3.33;;;20.70;99.90;;;;;;5074976;28;20039;-76
2022/08/17 03:01:14;;;;;;;7.57;3.70;;;20.70;99.90;;;;;;5074746;28;20024;-75
2022/08/17 03:03:39;;;;;;;8.52;3.80;;;20.70;99.90;;;;;;5061539;28;20130;-75
2022/08/17 03:06:06;;;;;;;9.60;4.18;;;20.70;99.90;;;;;;5047192;28;20040;-76
2022/08/17 03:08:32;;;;;;;10.52;4.22;;;20.60;99.90;;;;;;5048317;28;20184;-76
2022/08/17 03:10:58;;;;;;;6.03;3.80;;;20.70;99.90;;;;;;5048019;28;20052;-76
2022/08/17 03:13:24;;;;;;;7.60;3.78;;;20.80;99.90;;;;;;5047997;28;20100;-76
2022/08/17 03:15:50;;;;;;;5.72;3.83;;;20.80;99.90;;;;;;5047322;28;20029;-76
2022/08/17 03:18:19;;;;;;;6.32;4.32;;;20.80;99.90;;;;;;5058607;28;20112;-76
2022/08/17 03:20:45;;;;;;;6.03;3.88;;;20.70;99.90;;;;;;5065633;28;20533;-76
2022/08/17 03:23:11;;;;;;;5.05;3.65;;;20.70;99.90;;;;;;5065623;28;20064;-75
2022/08/17 03:25:42;;;;;;;5.07;3.58;;;20.60;99.90;;;;;;5068243;28;20045;-76
2022/08/17 03:28:09;;;;;;;4.72;3.35;;;20.70;99.90;;;;;;5068577;28;20104;-76
2022/08/17 03:30:35;;;;;;;6.10;3.63;;;20.80;99.90;;;;;;5068654;28;20025;-76
2022/08/17 03:33:04;;;;;;;8.75;3.60;;;20.80;99.90;;;;;;5068352;28;20577;-76
2022/08/17 03:35:32;;;;;;;5.43;3.83;;;20.80;99.90;;;;;;5068234;28;20551;-76
2022/08/17 03:37:59;;;;;;;7.72;3.55;;;20.70;99.90;;;;;;5068135;28;20086;-76
2022/08/17 03:40:25;;;;;;;8.73;4.28;;;20.70;99.90;;;;;;5068540;28;20035;-76
2022/08/17 03:42:52;;;;;;;6.13;3.47;;;20.60;99.90;;;;;;5068246;28;20032;-76
2022/08/17 03:56:42;;;;;;;5.63;3.67;;;20.70;99.90;;;;;;5068109;28;20071;-76
2022/08/17 03:59:15;;;;;;;7.78;3.58;;;20.60;99.90;;;;;;5065377;28;20033;-76
2022/08/17 04:01:46;;;;;;;5.97;3.50;;;20.50;99.90;;;;;;5065055;28;20063;-76
2022/08/17 04:04:13;;;;;;;6.50;4.25;;;20.40;99.90;;;;;;5064384;28;20040;-76
2022/08/17 04:06:40;;;;;;;6.15;4.25;;;20.30;99.90;;;;;;5065021;28;20119;-76
2022/08/17 04:09:06;;;;;;;5.43;3.78;;;20.30;99.90;;;;;;5063912;28;20049;-76
2022/08/17 04:11:32;;;;;;;7.07;3.92;;;20.40;99.90;;;;;;5064669;28;20356;-76
2022/08/17 04:13:58;;;;;;;6.43;4.53;;;20.40;99.90;;;;;;5064670;28;20536;-76
2022/08/17 04:16:24;;;;;;;7.90;3.92;;;20.50;99.90;;;;;;5065024;28;20028;-76
2022/08/17 04:18:50;;;;;;;5.60;3.78;;;20.50;99.90;;;;;;5064880;28;20016;-76
2022/08/17 04:21:17;;;;;;;5.55;3.47;;;20.40;99.90;;;;;;5064870;28;20032;-76
2022/08/17 04:23:42;;;;;;;7.20;4.22;;;20.40;99.90;;;;;;5064196;28;20355;-76
2022/08/17 04:26:08;;;;;;;6.63;4.57;;;20.40;99.90;;;;;;5064381;28;20105;-76
2022/08/17 04:28:34;;;;;;;6.63;3.80;;;20.40;99.90;;;;;;5065297;28;20522;-76
2022/08/17 04:30:59;;;;;;;7.68;4.10;;;20.40;99.90;;;;;;5064876;28;20017;-76
2022/08/17 04:33:27;;;;;;;4.68;3.67;;;20.40;99.90;;;;;;5064721;28;20024;-76
2022/08/17 04:35:56;;;;;;;6.32;3.38;;;20.60;99.90;;;;;;5063999;28;20096;-76
2022/08/17 04:38:25;;;;;;;4.50;3.22;;;20.70;99.90;;;;;;5064234;28;20064;-76
2022/08/17 04:43:37;;;;;;;6.47;3.70;;;20.90;99.90;;;;;;5064283;28;20031;-76
2022/08/17 04:46:06;;;;;;;5.88;4.30;;;21.00;99.90;;;;;;5064311;28;20486;-76
2022/08/17 04:48:37;;;;;;;7.15;3.92;;;21.10;99.90;;;;;;5063678;28;20063;-76
2022/08/17 04:51:28;;;;;;;6.70;4.03;;;21.00;99.90;;;;;;5063950;28;20261;-76
2022/08/17 04:54:01;;;;;;;5.72;3.53;;;21.10;99.90;;;;;;5063433;28;20068;-76
2022/08/17 04:56:27;;;;;;;5.35;3.28;;;21.20;99.90;;;;;;5064373;28;20048;-76
2022/08/17 04:58:57;;;;;;;7.20;3.70;;;21.10;99.90;;;;;;5063958;28;20135;-75
2022/08/17 05:01:26;;;;;;;5.95;3.83;;;20.60;99.90;;;;;;5064200;28;20111;-76
2022/08/17 05:03:55;;;;;;;7.18;4.22;;;20.60;99.90;;;;;;5064438;28;20024;-76
2022/08/17 05:06:21;;;;;;;9.50;4.32;;;20.80;99.90;;;;;;5064056;28;20127;-76
2022/08/17 05:08:46;;;;;;;5.95;4.00;;;20.90;99.90;;;;;;5064087;28;20063;-76
2022/08/17 05:11:12;;;;;;;7.80;4.38;;;21.00;99.90;;;;;;5064256;28;20056;-76
2022/08/17 05:13:38;;;;;;;6.63;4.10;;;21.00;99.90;;;;;;5064583;28;20086;-76
2022/08/17 05:16:04;;;;;;;6.45;3.88;;;21.10;99.90;;;;;;5064354;28;20027;-76
2022/08/17 05:18:30;;;;;;;8.68;3.63;;;21.00;99.90;;;;;;5064127;28;20383;-76
2022/08/17 05:20:56;;;;;;;9.55;4.78;;;20.90;99.90;;;;;;5064078;28;20028;-76
2022/08/17 05:23:24;;;;;;;6.43;4.32;;;20.80;99.90;;;;;;5064454;28;20520;-76
2022/08/17 05:25:54;;;;;;;6.47;3.90;;;20.80;99.90;;;;;;5064624;28;20359;-76
2022/08/17 05:28:21;;;;;;;10.70;4.32;;;20.90;99.90;;;;;;5064381;28;20074;-76
2022/08/17 05:30:48;;;;;;;7.75;4.05;;;21.00;99.90;;;;;;5064130;28;20052;-76
2022/08/17 05:33:19;;;;;;;6.68;3.65;;;21.00;99.90;;;;;;5063808;28;20024;-76
2022/08/17 05:35:49;;;;;;;4.93;3.72;;;21.10;99.90;;;;;;5045816;28;20550;-76
2022/08/17 05:38:16;;;;;;;8.35;4.00;;;21.20;99.90;;;;;;5064610;28;20021;-76
2022/08/17 05:40:43;;;;;;;5.80;4.05;;;21.20;99.90;;;;;;5068152;28;20033;-76
2022/08/17 05:43:18;;;;;;;6.82;4.18;;;21.20;99.90;;;;;;5049450;28;20454;-76
2022/08/17 05:45:49;;;;;;;5.72;4.03;;;21.20;99.90;;;;;;5067327;28;20033;-75
2022/08/17 05:48:15;;;;;;;6.68;4.50;;;21.30;99.90;;;;;;5067557;28;20048;-75
2022/08/17 05:51:09;;;;;;;7.00;4.32;;;21.20;99.90;;;;;;5067332;28;20025;-75
2022/08/17 05:54:03;;;;;;;8.63;4.68;;;21.30;99.90;;;;;;5067423;28;20029;-75
2022/08/17 05:56:50;;;;;;;6.35;4.07;;;21.50;99.90;;;;;;5067716;28;20027;-75
2022/08/17 05:59:33;;;;;;;9.48;4.13;;;21.60;99.90;;;;;;5067241;28;20070;-75
2022/08/17 06:02:13;;;;;;;8.05;3.83;;;21.70;99.90;;;;;;5067703;28;20332;-76
2022/08/17 06:04:57;;;;;;;6.50;3.67;;;21.70;99.90;;;;;;5067125;28;20058;-76
2022/08/17 06:07:46;;;;;;;7.07;4.68;;;21.60;99.90;;;;;;5068778;28;20036;-76
2022/08/17 06:10:30;;;;;;;6.75;3.72;;;21.70;99.90;;;;;;5056650;28;20048;-75
2022/08/17 06:13:14;;;;;;;;;;;21.80;99.90;;;;;;5067467;28;20029;-75
2022/08/17 06:16:01;;;;;;;5.88;4.18;;;21.80;99.90;;;;;;5067671;28;19905;-76
2022/08/17 06:18:38;;;;;;;9.52;4.38;;;21.80;99.90;;;;;;5067158;28;20066;-75
2022/08/17 06:21:07;;;;;;;5.60;3.97;;;21.90;99.90;;;;;;5067174;28;20390;-76
2022/08/17 06:23:41;;;;;;;8.32;4.15;;;21.90;99.90;;;;;;5067387;28;20035;-75
2022/08/17 06:26:36;;;;;;;6.40;4.13;;;22.00;99.90;;;;;;5066914;28;20116;-75
2022/08/17 06:29:16;;;;;;;7.50;4.30;;;22.10;99.90;;;;;;5064844;28;20036;-75
2022/08/17 06:31:42;;;;;;;5.75;4.05;;;22.00;99.90;;;;;;5067083;28;20047;-76
2022/08/17 06:34:10;;;;;;;5.82;3.90;;;22.20;99.90;;;;;;5066605;28;20078;-76
2022/08/17 06:37:01;;;;;;;7.28;4.03;;;22.30;99.90;;;;;;5066761;28;20028;-76
2022/08/17 06:40:06;;;;;;;15.60;4.32;;;22.30;99.90;;;;;;5066878;28;20036;-76
2022/08/17 06:42:46;;;;;;;13.55;4.30;;;22.40;99.90;;;;;;5066369;28;20021;-76
2022/08/17 06:45:25;;;;;;;9.50;4.18;;;22.60;99.90;;;;;;5066615;28;20048;-76
2022/08/17 06:48:06;;;;;;;7.30;3.85;;;22.80;99.90;;;;;;5066301;28;21055;-76
2022/08/17 06:50:48;;;;;;;6.32;3.70;;;22.80;99.90;;;;;;5066320;28;20040;-76
2022/08/17 06:53:35;;;;;;;9.30;3.92;;;23.00;99.90;;;;;;5066586;28;20123;-76
2022/08/17 06:56:05;;;;;;;8.75;4.05;;;23.10;99.90;;;;;;5048279;28;20406;-76
2022/08/17 06:58:32;;;;;;;5.50;3.90;;;23.20;99.80;;;;;;5067320;28;20078;-77
2022/08/17 07:01:15;;;;;;;7.22;4.40;;;23.40;99.90;;;;;;5070728;28;20021;-76
2022/08/17 07:03:56;;;;;;;7.00;3.88;;;23.80;99.90;;;;;;5066312;28;20068;-76
2022/08/17 07:06:45;;;;;;;7.22;4.50;;;24.90;99.00;;;;;;5065875;28;20060;-76
2022/08/17 07:09:16;;;;;;;7.13;3.70;;;25.90;97.20;;;;;;5065454;28;20051;-75
2022/08/17 07:12:02;;;;;;;10.30;4.68;;;27.00;95.50;;;;;;5065494;28;20029;-75
2022/08/17 07:14:35;;;;;;;5.32;3.83;;;28.10;94.50;;;;;;5066031;28;20050;-76
2022/08/17 07:17:12;;;;;;;;;;;29.10;93.00;;;;;;5066358;28;20054;-76
2022/08/17 07:19:41;;;;;;;9.25;4.43;;;30.10;91.90;;;;;;5066098;28;19990;-75
2022/08/17 07:22:25;;;;;;;6.68;3.67;;;30.40;91.10;;;;;;5066117;28;20021;-75
2022/08/17 07:24:57;;;;;;;5.38;3.92;;;30.30;90.50;;;;;;5065403;28;20029;-75
2022/08/17 07:27:37;;;;;;;7.70;3.75;;;30.60;90.70;;;;;;5065227;28;20463;-76
2022/08/17 07:30:07;;;;;;;6.38;3.63;;;30.20;90.50;;;;;;5065792;28;20051;-75
2022/08/17 07:32:44;;;;;;;7.35;3.75;;;30.80;90.50;;;;;;5066118;28;20448;-75
2022/08/17 07:35:15;;;;;;;5.38;3.53;;;30.70;90.30;;;;;;5068425;28;20489;-76
2022/08/17 07:37:54;;;;;;;6.40;4.07;;;30.50;90.20;;;;;;5069012;28;20075;-75
2022/08/17 07:40:27;;;;;;;7.03;4.10;;;29.20;90.70;;;;;;5068260;28;20031;-76
2022/08/17 07:43:14;;;;;;;6.70;3.92;;;28.30;91.30;;;;;;5068228;28;20367;-75
2022/08/17 07:48:45;;;;;;;7.28;3.97;;;26.60;93.20;;;;;;5068255;28;20044;-75
2022/08/17 07:51:20;;;;;;;7.10;4.38;;;25.50;94.20;;;;;;5068022;28;20619;-75
2022/08/17 07:53:46;;;;;;;5.70;3.83;;;25.20;94.80;;;;;;5068040;28;20021;-76
2022/08/17 07:56:33;;;;;;;9.93;4.35;;;24.90;94.80;;;;;;5068105;28;20485;-75
2022/08/17 07:59:15;;;;;;;4.97;3.83;;;24.70;95.10;;;;;;5068124;28;20025;-75
2022/08/17 08:01:46;;;;;;;7.22;4.18;;;24.70;95.30;;;;;;5067561;28;20074;-75
2022/08/17 08:04:29;;;;;;;6.03;4.40;;;24.70;95.40;;;;;;5067613;28;20060;-75
2022/08/17 08:06:58;;;;;;;6.93;4.30;;;24.50;96.50;;;;;;5068015;28;20029;-75
2022/08/17 08:09:45;;;;;;;7.15;3.70;;;24.70;96.60;;;;;;5067749;28;20040;-75
2022/08/17 08:12:46;;;;;;;6.80;3.85;;;24.70;95.80;;;;;;5067984;28;20035;-75
2022/08/17 08:15:20;;;;;;;5.68;3.53;;;24.80;96.10;;;;;;5065590;28;20028;-76
2022/08/17 08:17:46;;;;;;;;;;;24.90;96.00;;;;;;5069027;28;20025;-76
2022/08/17 08:20:11;;;;;;;6.65;3.83;;;25.00;96.20;;;;;;5068395;28;19970;-76
2022/08/17 08:23:14;;;;;;;6.95;3.60;;;24.90;95.70;;;;;;5067794;28;20548;-75
2022/08/17 08:26:08;;;;;;;7.82;3.90;;;25.20;96.20;;;;;;5049342;28;20451;-75
2022/08/17 08:29:00;;;;;;;7.65;3.85;;;25.20;95.60;;;;;;5039834;28;20040;-75
2022/08/17 08:32:06;;;;;;;8.43;4.63;;;25.30;95.70;;;;;;5049498;28;20039;-75
2022/08/17 08:34:51;;;;;;;6.75;4.43;;;25.30;96.50;;;;;;5061591;28;20322;-75
2022/08/17 08:37:40;;;;;;;5.55;4.20;;;26.10;95.70;;;;;;5067117;28;20027;-75
2022/08/17 08:40:33;;;;;;;11.43;4.85;;;27.10;94.40;;;;;;5067073;28;20032;-76
2022/08/17 08:43:17;;;;;;;7.75;4.22;;;27.20;94.10;;;;;;5067374;28;20031;-75
2022/08/17 08:46:12;;;;;;;6.93;4.15;;;27.80;93.80;;;;;;5067365;28;20041;-76
2022/08/17 08:49:17;;;;;;;6.28;4.45;;;28.60;92.90;;;;;;5046917;28;20032;-75
2022/08/17 08:51:54;;;;;;;6.55;3.45;;;29.50;92.40;;;;;;5067523;28;20378;-75
2022/08/17 08:54:33;;;;;;;9.27;4.45;;;29.20;92.70;;;;;;5067859;28;20501;-75
2022/08/17 08:57:29;;;;;;;7.20;4.13;;;29.20;92.00;;;;;;5049419;28;20029;-75
2022/08/17 09:00:22;;;;;;;7.28;4.43;;;29.30;91.40;;;;;;5067372;28;20090;-75
2022/08/17 09:02:54;;;;;;;9.52;4.28;;;29.00;91.90;;;;;;5067529;28;20020;-75
2022/08/17 09:06:02;;;;;;;5.10;3.35;;;28.70;92.00;;;;;;5066967;28;20037;-76
2022/08/17 09:08:43;;;;;;;5.05;3.80;;;28.10;92.20;;;;;;5067521;28;20028;-75
2022/08/17 09:11:47;;;;;;;5.25;3.72;;;27.70;92.90;;;;;;5067145;28;20192;-75
2022/08/17 09:14:30;;;;;;;5.15;3.30;;;27.60;93.70;;;;;;5059785;28;20040;-76
2022/08/17 09:17:18;;;;;;;9.57;3.90;;;27.80;93.70;;;;;;5071770;28;20270;-76
2022/08/17 09:19:45;;;;;;;5.40;3.72;;;27.60;93.40;;;;;;5071210;28;20492;-75
2022/08/17 09:22:17;;;;;;;6.32;3.28;;;27.20;93.00;;;;;;5071111;28;20498;-75
2022/08/17 09:24:55;;;;;;;5.72;3.67;;;27.20;93.30;;;;;;5071115;28;20024;-75
2022/08/17 09:27:30;;;;;;;7.20;4.40;;;27.30;93.00;;;;;;5071732;28;20624;-77
2022/08/17 09:30:03;;;;;;;7.07;4.20;;;27.20;93.40;;;;;;5073113;28;20024;-76
2022/08/17 09:32:48;;;;;;;5.82;3.83;;;27.70;93.30;;;;;;5073186;28;20494;-77
2022/08/17 09:35:22;;;;;;;5.78;4.07;;;27.50;93.10;;;;;;5072409;28;20025;-76
2022/08/17 09:38:03;;;;;;;7.95;4.60;;;27.70;93.20;;;;;;5072560;28;20020;-77
2022/08/17 09:40:38;;;;;;;6.60;3.53;;;27.60;93.10;;;;;;5075722;28;20283;-76
2022/08/17 09:43:17;;;;;;;6.15;3.88;;;27.60;93.20;;;;;;5071487;28;20024;-77
2022/08/17 09:45:53;;;;;;;8.88;4.63;;;27.20;93.10;;;;;;5071804;28;20037;-77
2022/08/17 09:48:38;;;;;;;8.43;3.85;;;27.70;93.90;;;;;;5071699;28;20017;-76
2022/08/17 09:51:17;;;;;;;6.70;4.35;;;27.80;93.10;;;;;;5071982;28;20047;-77
2022/08/17 09:53:42;;;;;;;13.52;3.95;;;28.00;93.60;;;;;;5072135;28;20028;-77
2022/08/17 09:56:26;;;;;;;6.82;4.43;;;28.10;93.70;;;;;;5072051;28;20029;-77
2022/08/17 09:58:55;;;;;;;;;;;27.70;92.60;;;;;;5071951;28;20046;-76
2022/08/17 10:01:53;;;;;;;6.88;3.78;;;27.70;93.70;;;;;;5072308;28;20014;-77
2022/08/17 10:04:33;;;;;;;6.00;3.72;;;28.00;93.40;;;;;;5072329;28;20107;-76
2022/08/17 10:07:14;;;;;;;6.45;3.78;;;28.40;93.40;;;;;;5072152;28;20442;-76
2022/08/17 10:09:42;;;;;;;6.10;3.88;;;28.40;92.90;;;;;;5071105;28;20117;-77
2022/08/17 10:12:21;;;;;;;8.88;3.90;;;28.20;92.50;;;;;;5071620;28;20463;-77
2022/08/17 10:14:50;;;;;;;5.95;3.88;;;28.30;92.60;;;;;;5072339;28;20017;-77
2022/08/17 10:17:24;;;;;;;8.00;3.92;;;28.20;92.90;;;;;;5071729;28;20020;-76
2022/08/17 10:20:19;;;;;;;5.35;3.97;;;28.30;92.40;;;;;;5071577;28;20032;-77
2022/08/17 10:28:28;;;;;;;11.65;4.65;;;29.00;92.50;;;;;;5071041;28;20039;-77
2022/08/17 10:30:57;;;;;;;10.63;4.88;;;28.90;92.50;;;;;;5071325;28;20032;-77
2022/08/17 10:33:31;;;;;;;6.20;3.97;;;29.00;93.40;;;;;;5071354;28;20047;-77
2022/08/17 10:36:05;;;;;;;;;;;29.10;93.00;;;;;;5071599;28;20016;-77
2022/08/17 10:38:31;;;;;;;;;;;29.30;93.00;;;;;;5072439;28;19948;-76
2022/08/17 10:41:22;;;;;;;12.43;4.45;;;29.00;93.00;;;;;;5072059;28;19954;-76
2022/08/17 10:43:59;;;;;;;6.45;3.78;;;28.80;92.80;;;;;;5071355;28;20100;-76
2022/08/17 10:46:50;;;;;;;6.63;3.60;;;28.80;93.10;;;;;;5053900;28;20043;-77
2022/08/17 10:49:16;;;;;;;6.25;4.03;;;29.00;93.40;;;;;;5071801;28;20486;-77
2022/08/17 10:51:51;;;;;;;7.78;3.78;;;29.10;93.70;;;;;;5072376;28;20060;-77
2022/08/17 10:54:23;;;;;;;6.80;3.70;;;29.30;93.40;;;;;;5071209;28;20021;-77
2022/08/17 10:56:50;;;;;;;17.02;4.53;;;29.50;93.40;;;;;;5071828;28;20260;-77
2022/08/17 10:59:34;;;;;;;5.47;3.17;;;29.70;93.60;;;;;;5070944;28;20028;-77
2022/08/17 11:02:17;;;;;;;13.88;4.75;;;29.60;92.70;;;;;;5070863;28;20544;-77
2022/08/17 11:05:02;;;;;;;5.57;3.80;;;29.20;92.40;;;;;;5071237;28;20021;-77
2022/08/17 11:07:37;;;;;;;11.27;4.30;;;29.20;93.20;;;;;;5070551;28;20119;-77
2022/08/17 11:10:33;;;;;;;5.80;3.50;;;29.10;92.80;;;;;;5070328;28;20072;-77
2022/08/17 11:13:34;;;;;;;6.90;3.10;;;28.90;92.30;;;;;;5070112;28;20021;-77
2022/08/17 11:16:17;;;;;;;6.78;3.25;;;28.90;92.50;;;;;;5070087;28;20024;-77
2022/08/17 11:18:52;;;;;;;9.65;3.17;;;28.70;92.20;;;;;;5070677;28;20453;-76
2022/08/17 11:21:54;;;;;;;9.93;3.50;;;28.80;92.00;;;;;;5072201;28;20367;-77
2022/08/17 11:24:40;;;;;;;7.85;4.07;;;29.00;92.40;;;;;;5071551;28;20154;-77
2022/08/17 11:27:27;;;;;;;12.70;3.45;;;29.10;92.30;;;;;;5070660;28;20142;-76
2022/08/17 11:30:02;;;;;;;7.03;3.30;;;29.30;93.10;;;;;;5071043;28;20051;-77
2022/08/17 11:32:44;;;;;;;5.80;3.42;;;29.70;92.50;;;;;;5070776;28;20548;-77
2022/08/17 11:35:19;;;;;;;10.50;3.75;;;29.90;91.70;;;;;;5070870;28;20036;-77
2022/08/17 11:38:34;;;;;;;6.60;3.13;;;30.00;90.90;;;;;;5070177;28;20021;-77
2022/08/17 11:41:25;;;;;;;8.75;3.15;;;30.20;91.80;;;;;;4996986;28;20505;-77
2022/08/17 11:44:41;;;;;;;5.80;2.88;;;30.40;91.20;;;;;;5069927;28;20025;-77
2022/08/17 11:53:36;;;;;;;6.70;3.53;;;30.80;91.50;;;;;;5071022;28;20646;-77
2022/08/17 11:56:08;;;;;;;5.75;3.25;;;30.80;91.00;;;;;;5071355;28;20021;-77
2022/08/17 11:58:42;;;;;;;6.30;2.83;;;30.70;90.70;;;;;;5070875;28;20383;-77
2022/08/17 12:01:50;;;;;;;5.82;3.25;;;30.50;90.90;;;;;;5070900;28;20024;-77
2022/08/17 12:04:33;;;;;;;7.93;3.50;;;30.40;90.70;;;;;;5070679;28;20035;-77
2022/08/17 12:07:19;;;;;;;6.28;3.33;;;30.40;91.10;;;;;;5071329;28;20071;-77
2022/08/17 12:09:50;;;;;;;7.55;3.03;;;30.30;90.50;;;;;;5070435;28;20156;-77
2022/08/17 12:12:23;;;;;;;5.90;3.40;;;30.10;90.70;;;;;;5070948;28;20020;-77
2022/08/17 12:14:56;;;;;;;7.43;3.17;;;30.10;90.60;;;;;;5070879;28;20081;-77
2022/08/17 12:17:25;;;;;;;11.57;3.05;;;30.20;90.30;;;;;;5072146;28;20032;-77
2022/08/17 12:19:51;;;;;;;7.80;3.20;;;30.40;90.10;;;;;;5074315;28;20032;-77
2022/08/17 12:22:25;;;;;;;11.82;3.50;;;30.50;90.00;;;;;;5070374;28;20056;-77
2022/08/17 12:25:09;;;;;;;7.35;3.30;;;30.70;88.60;;;;;;5070433;28;20390;-77
2022/08/17 12:27:36;;;;;;;12.68;4.28;;;30.80;89.60;;;;;;5070463;28;20469;-77
2022/08/17 12:30:08;;;;;;;5.80;3.03;;;30.90;90.20;;;;;;5070941;28;20056;-77
2022/08/17 12:32:35;;;;;;;10.35;3.38;;;30.80;88.20;;;;;;5070953;28;20033;-77
2022/08/17 12:35:03;;;;;;;7.50;3.03;;;30.70;88.10;;;;;;5070205;28;20032;-77
2022/08/17 12:37:34;;;;;;;9.13;3.60;;;30.80;88.60;;;;;;5051996;28;20021;-77
2022/08/17 12:39:59;;;;;;;7.78;3.45;;;30.80;88.30;;;;;;5070086;28;20479;-77
2022/08/17 12:42:38;;;;;;;9.50;3.67;;;30.70;88.60;;;;;;5070437;28;20047;-77
2022/08/17 12:45:20;;;;;;;5.72;3.22;;;30.70;88.60;;;;;;5070833;28;20028;-77
2022/08/17 12:47:46;;;;;;;10.32;2.97;;;30.70;88.80;;;;;;5070433;28;20047;-77
2022/08/17 12:50:13;;;;;;;6.32;2.97;;;30.70;88.60;;;;;;5070480;28;20032;-77
2022/08/17 12:52:41;;;;;;;10.70;3.55;;;30.50;88.40;;;;;;5070479;28;20538;-77
2022/08/17 12:55:23;;;;;;;6.80;3.28;;;30.60;89.60;;;;;;5069625;28;20320;-77
2022/08/17 12:57:52;;;;;;;6.90;3.20;;;30.70;88.80;;;;;;5070382;28;20029;-77
2022/08/17 13:00:24;;;;;;;6.65;2.67;;;30.70;89.10;;;;;;5069973;28;20021;-77
2022/08/17 13:02:54;;;;;;;8.38;3.22;;;30.50;88.60;;;;;;5069904;28;20491;-77
2022/08/17 13:05:29;;;;;;;5.50;3.35;;;30.50;87.80;;;;;;5070265;28;20100;-77
2022/08/17 13:07:58;;;;;;;7.07;2.97;;;30.50;88.70;;;;;;5069957;28;20029;-77
2022/08/17 13:10:34;;;;;;;6.63;3.10;;;30.70;88.40;;;;;;5069393;28;20045;-77
2022/08/17 13:13:04;;;;;;;6.68;3.03;;;30.90;88.50;;;;;;5069368;28;20043;-77
2022/08/17 13:15:49;;;;;;;8.88;3.35;;;30.90;87.10;;;;;;5069316;28;20029;-77
2022/08/17 13:19:10;;;;;;;7.05;3.15;;;31.00;87.80;;;;;;5069698;28;20040;-77
2022/08/17 13:21:42;;;;;;;8.15;2.80;;;31.10;87.50;;;;;;5036995;28;20062;-77
2022/08/17 13:24:12;;;;;;;7.47;3.20;;;31.10;87.60;;;;;;5069637;28;20406;-77
2022/08/17 13:26:44;;;;;;;6.75;2.85;;;31.10;87.90;;;;;;5069658;28;20448;-77
2022/08/17 13:29:24;;;;;;;7.32;2.90;;;31.20;86.40;;;;;;5069219;28;20312;-77
2022/08/17 13:32:11;;;;;;;7.05;3.28;;;31.20;87.90;;;;;;5069831;28;20025;-77
2022/08/17 13:34:44;;;;;;;8.38;3.15;;;31.20;87.10;;;;;;5069369;28;20086;-77
2022/08/17 13:37:25;;;;;;;8.00;3.25;;;30.90;87.10;;;;;;5069134;28;20100;-77
2022/08/17 13:40:09;;;;;;;7.57;3.30;;;30.90;87.50;;;;;;5069797;28;20042;-77
2022/08/17 13:42:41;;;;;;;7.70;3.70;;;30.50;85.60;;;;;;5069021;28;20425;-77
2022/08/17 13:45:25;;;;;;;6.28;2.95;;;30.60;86.90;;;;;;5069489;28;20025;-77
2022/08/17 13:48:19;;;;;;;7.13;3.22;;;30.60;85.70;;;;;;5069649;28;20043;-77
2022/08/17 13:50:53;;;;;;;5.35;2.90;;;30.50;86.30;;;;;;5069180;28;20032;-77
2022/08/17 13:53:27;;;;;;;5.95;2.67;;;30.60;86.90;;;;;;5069232;28;20032;-77
2022/08/17 13:56:14;;;;;;;7.03;3.20;;;30.80;86.80;;;;;;5069604;28;20021;-77
2022/08/17 13:59:03;;;;;;;4.75;2.75;;;31.10;86.20;;;;;;5068865;28;20553;-77